Phoenix, AZ (85068)

4:27 PM MST on August 02, 2015 (GMT -0700)
Arroyo Rojo | | Change Station
CLOSE
Current Station
Personal Weather Station
Location: Phoenix, AZ
Elevation: 1476 ft
Nearby Weather Stations

Elev 1476 ft 33.68 °N, 112.06 °W | Updated 1 minute ago

Clear
Clear
105.9 °F
Feels Like 107 °F
N
3.0
Wind Variable Wind from SW
Gusts 6.0 mph

Today
High -- | Low -- °F
--% Chance of Precip.
Yesterday
High -- | Low -- °F
Precip. -- in
5:40 AM 7:27 PM
Waning Gibbous, 91% visible
Pressure 29.66 in
Visibility 10.0 miles
Clouds Clear
Heat Index 107 °F
Dew Point 59 °F
Humidity 22%
Rainfall 0.00 in
Snow Depth Not available.
UV 6 out of 12
Pollen 3.80 out of 12
Air Quality Not available.
Flu Activity Not available.
METAR KDVT 022253Z AUTO 23009G18KT 10SM CLR 40/12 A2974 RMK AO2 SLP042 T04000117

More Conditions Fewer Conditions

Pressure 29.66 in
Visibility 10.0 miles
Clouds Clear
Heat Index 107 °F
Dew Point 59 °F
Humidity 22%
Rainfall 0.00 in
Snow Depth Not available.
UV 6 out of 12
Pollen 3.80 out of 12
Air Quality Not available.
Flu Activity Not available.
METAR KDVT 022253Z AUTO 23009G18KT 10SM CLR 40/12 A2974 RMK AO2 SLP042 T04000117

More Conditions Fewer Conditions

10-Day Weather Forecast

×

Almanac

Astronomy

Aug. 02, 2015 Rise Set
Actual Time
Civil Twilight
Nautical Twilight
Astronomical Twilight
Moon
Length of Visible Light
Length of Day
Tomorrow will be .
, % of the Moon is Illuminated

Today's Extremes

State Highs State Lows

Community

WunderPhotos

Upload Photos

1,843,408 photos uploaded!

WunderBlogs® & News

Nearby

Air Quality

  Air Quality AQ Index Pollutant
Not available.

Snow Depth

Station Depth Elevation

Earthquake Activity

City Distance Mag. Time & Date
Minimum magnitude displayed is 2.5.

Coastal Water Temperatures

Place Temperature

Stations

Nearby Weather Stations

Station Location Temp. Windchill Dew Point Humidity Wind Precip. Elev Updated Type